sensor_id;sensor_type;location;lat;lon;timestamp;pressure;altitude;pressure_sealevel;temperature;humidity
76598;BME280;65486;53.144;18.134;2024-01-30T00:01:10;102599.96;;;-2.21;95.90
76598;BME280;65486;53.144;18.134;2024-01-30T00:03:49;102601.50;;;-2.22;96.13
76598;BME280;65486;53.144;18.134;2024-01-30T00:06:19;102605.39;;;-2.24;96.00
76598;BME280;65486;53.144;18.134;2024-01-30T00:08:49;102600.61;;;-2.25;95.96
76598;BME280;65486;53.144;18.134;2024-01-30T00:11:16;102599.98;;;-2.26;96.33
76598;BME280;65486;53.144;18.134;2024-01-30T00:13:45;102597.56;;;-2.26;96.47
76598;BME280;65486;53.144;18.134;2024-01-30T00:16:22;102593.70;;;-2.27;96.26
76598;BME280;65486;53.144;18.134;2024-01-30T00:18:54;102595.33;;;-2.27;96.18
76598;BME280;65486;53.144;18.134;2024-01-30T00:21:28;102597.23;;;-2.29;96.41
76598;BME280;65486;53.144;18.134;2024-01-30T00:23:55;102598.07;;;-2.28;96.66
76598;BME280;65486;53.144;18.134;2024-01-30T00:26:22;102594.20;;;-2.26;96.69
76598;BME280;65486;53.144;18.134;2024-01-30T00:28:49;102595.90;;;-2.25;96.42
76598;BME280;65486;53.144;18.134;2024-01-30T00:31:16;102595.23;;;-2.26;96.52
76598;BME280;65486;53.144;18.134;2024-01-30T00:33:43;102591.16;;;-2.27;96.21
76598;BME280;65486;53.144;18.134;2024-01-30T00:36:11;102592.13;;;-2.28;96.46
76598;BME280;65486;53.144;18.134;2024-01-30T00:38:38;102587.38;;;-2.30;96.44
76598;BME280;65486;53.144;18.134;2024-01-30T00:41:10;102589.51;;;-2.32;96.41
76598;BME280;65486;53.144;18.134;2024-01-30T00:43:37;102587.41;;;-2.33;96.35
76598;BME280;65486;53.144;18.134;2024-01-30T00:46:04;102583.77;;;-2.35;96.08
76598;BME280;65486;53.144;18.134;2024-01-30T00:48:31;102579.42;;;-2.38;96.37
76598;BME280;65486;53.144;18.134;2024-01-30T00:50:58;102579.67;;;-2.39;96.24
76598;BME280;65486;53.144;18.134;2024-01-30T00:53:26;102575.80;;;-2.40;96.47
76598;BME280;65486;53.144;18.134;2024-01-30T00:55:55;102581.23;;;-2.41;96.25
76598;BME280;65486;53.144;18.134;2024-01-30T00:58:22;102578.18;;;-2.41;96.19
76598;BME280;65486;53.144;18.134;2024-01-30T01:00:49;102581.25;;;-2.41;96.14
76598;BME280;65486;53.144;18.134;2024-01-30T01:03:16;102581.82;;;-2.41;96.21
76598;BME280;65486;53.144;18.134;2024-01-30T01:05:43;102585.70;;;-2.43;96.07
76598;BME280;65486;53.144;18.134;2024-01-30T01:08:11;102581.25;;;-2.44;96.24
76598;BME280;65486;53.144;18.134;2024-01-30T01:10:38;102582.27;;;-2.46;96.16
76598;BME280;65486;53.144;18.134;2024-01-30T01:13:05;102576.97;;;-2.47;96.18
76598;BME280;65486;53.144;18.134;2024-01-30T01:15:32;102572.90;;;-2.48;96.17
76598;BME280;65486;53.144;18.134;2024-01-30T01:18:02;102571.84;;;-2.49;96.42
76598;BME280;65486;53.144;18.134;2024-01-30T01:20:29;102574.04;;;-2.49;96.66
76598;BME280;65486;53.144;18.134;2024-01-30T01:22:56;102574.12;;;-2.51;96.44
76598;BME280;65486;53.144;18.134;2024-01-30T01:25:23;102576.58;;;-2.52;96.37
76598;BME280;65486;53.144;18.134;2024-01-30T01:27:51;102574.86;;;-2.54;96.43
76598;BME280;65486;53.144;18.134;2024-01-30T01:30:19;102568.16;;;-2.56;96.59
76598;BME280;65486;53.144;18.134;2024-01-30T01:32:50;102563.77;;;-2.58;96.55
76598;BME280;65486;53.144;18.134;2024-01-30T01:35:30;102567.64;;;-2.60;96.77
76598;BME280;65486;53.144;18.134;2024-01-30T01:37:57;102566.98;;;-2.61;96.59
76598;BME280;65486;53.144;18.134;2024-01-30T01:40:27;102568.60;;;-2.61;96.64
76598;BME280;65486;53.144;18.134;2024-01-30T01:42:55;102567.34;;;-2.61;96.56
76598;BME280;65486;53.144;18.134;2024-01-30T01:45:22;102566.76;;;-2.60;96.72
76598;BME280;65486;53.144;18.134;2024-01-30T01:47:52;102569.09;;;-2.60;96.81
76598;BME280;65486;53.144;18.134;2024-01-30T01:50:23;102566.23;;;-2.60;96.68
76598;BME280;65486;53.144;18.134;2024-01-30T01:52:52;102570.36;;;-2.60;97.02
76598;BME280;65486;53.144;18.134;2024-01-30T01:55:23;102574.34;;;-2.60;96.99
76598;BME280;65486;53.144;18.134;2024-01-30T01:57:54;102573.23;;;-2.60;97.03
76598;BME280;65486;53.144;18.134;2024-01-30T02:00:22;102568.04;;;-2.60;96.84
76598;BME280;65486;53.144;18.134;2024-01-30T02:02:50;102565.73;;;-2.61;96.78
76598;BME280;65486;53.144;18.134;2024-01-30T02:05:23;102531.52;;;-2.81;96.90
76598;BME280;65486;53.144;18.134;2024-01-30T02:07:52;102566.50;;;-2.62;97.01
76598;BME280;65486;53.144;18.134;2024-01-30T02:10:20;102566.09;;;-2.61;97.12
76598;BME280;65486;53.144;18.134;2024-01-30T02:12:48;102566.08;;;-2.61;96.73
76598;BME280;65486;53.144;18.134;2024-01-30T02:15:20;102568.31;;;-2.62;96.85
76598;BME280;65486;53.144;18.134;2024-01-30T02:17:48;102563.95;;;-2.64;96.75
76598;BME280;65486;53.144;18.134;2024-01-30T02:20:15;102567.29;;;-2.66;96.74
76598;BME280;65486;53.144;18.134;2024-01-30T02:22:42;102564.54;;;-2.68;97.02
76598;BME280;65486;53.144;18.134;2024-01-30T02:25:10;102564.07;;;-2.69;96.77
76598;BME280;65486;53.144;18.134;2024-01-30T02:27:36;102565.25;;;-2.71;96.98
76598;BME280;65486;53.144;18.134;2024-01-30T02:30:08;102565.02;;;-2.73;97.04
76598;BME280;65486;53.144;18.134;2024-01-30T02:32:36;102548.27;;;-2.84;97.04
76598;BME280;65486;53.144;18.134;2024-01-30T02:35:03;102566.63;;;-2.76;97.10
76598;BME280;65486;53.144;18.134;2024-01-30T02:37:30;102566.77;;;-2.78;96.99
76598;BME280;65486;53.144;18.134;2024-01-30T02:39:57;102564.19;;;-2.79;97.15
76598;BME280;65486;53.144;18.134;2024-01-30T02:42:24;102561.98;;;-2.79;97.40
76598;BME280;65486;53.144;18.134;2024-01-30T02:44:51;102560.61;;;-2.80;97.42
76598;BME280;65486;53.144;18.134;2024-01-30T02:47:18;102558.05;;;-2.82;97.42
76598;BME280;65486;53.144;18.134;2024-01-30T02:49:45;102556.64;;;-2.82;97.31
76598;BME280;65486;53.144;18.134;2024-01-30T02:52:13;102561.43;;;-2.84;97.08
76598;BME280;65486;53.144;18.134;2024-01-30T02:54:43;102559.34;;;-2.85;97.37
76598;BME280;65486;53.144;18.134;2024-01-30T02:57:10;102563.39;;;-2.87;97.35
76598;BME280;65486;53.144;18.134;2024-01-30T02:59:37;102561.54;;;-2.89;97.17
76598;BME280;65486;53.144;18.134;2024-01-30T03:02:04;102560.04;;;-2.91;97.18
76598;BME280;65486;53.144;18.134;2024-01-30T03:04:31;102553.65;;;-2.92;97.28
76598;BME280;65486;53.144;18.134;2024-01-30T03:06:57;102555.77;;;-2.92;97.53
76598;BME280;65486;53.144;18.134;2024-01-30T03:09:25;102554.38;;;-2.92;97.33
76598;BME280;65486;53.144;18.134;2024-01-30T03:11:52;102551.77;;;-2.94;97.28
76598;BME280;65486;53.144;18.134;2024-01-30T03:14:19;102547.16;;;-2.95;97.19
76598;BME280;65486;53.144;18.134;2024-01-30T03:16:46;102549.64;;;-2.97;97.26
76598;BME280;65486;53.144;18.134;2024-01-30T03:19:13;102558.65;;;-2.97;97.36
76598;BME280;65486;53.144;18.134;2024-01-30T03:21:40;102558.39;;;-2.99;97.19
76598;BME280;65486;53.144;18.134;2024-01-30T03:24:08;102560.79;;;-3.01;97.41
76598;BME280;65486;53.144;18.134;2024-01-30T03:26:36;102561.17;;;-3.01;97.30
76598;BME280;65486;53.144;18.134;2024-01-30T03:29:05;102558.84;;;-3.01;97.38
76598;BME280;65486;53.144;18.134;2024-01-30T03:31:33;102560.98;;;-3.01;97.13
76598;BME280;65486;53.144;18.134;2024-01-30T03:34:03;102561.98;;;-2.99;97.48
76598;BME280;65486;53.144;18.134;2024-01-30T03:36:30;102564.58;;;-2.97;97.51
76598;BME280;65486;53.144;18.134;2024-01-30T03:38:59;102561.28;;;-2.97;97.62
76598;BME280;65486;53.144;18.134;2024-01-30T03:41:27;102556.10;;;-2.94;97.47
76598;BME280;65486;53.144;18.134;2024-01-30T03:43:55;102552.59;;;-2.93;97.59
76598;BME280;65486;53.144;18.134;2024-01-30T03:46:23;102552.78;;;-2.90;97.65
76598;BME280;65486;53.144;18.134;2024-01-30T03:48:56;102549.03;;;-2.87;97.81
76598;BME280;65486;53.144;18.134;2024-01-30T03:51:24;102547.11;;;-2.86;97.60
76598;BME280;65486;53.144;18.134;2024-01-30T03:53:51;102548.27;;;-2.84;97.76
76598;BME280;65486;53.144;18.134;2024-01-30T03:56:20;102545.62;;;-2.82;97.71
76598;BME280;65486;53.144;18.134;2024-01-30T03:58:47;102550.74;;;-2.81;97.64
76598;BME280;65486;53.144;18.134;2024-01-30T04:01:14;102546.17;;;-2.79;97.68
76598;BME280;65486;53.144;18.134;2024-01-30T04:03:42;102547.34;;;-2.77;97.70
76598;BME280;65486;53.144;18.134;2024-01-30T04:06:11;102547.74;;;-2.76;97.75
76598;BME280;65486;53.144;18.134;2024-01-30T04:08:42;102550.92;;;-2.74;97.82
76598;BME280;65486;53.144;18.134;2024-01-30T04:11:10;102542.63;;;-2.77;97.60
76598;BME280;65486;53.144;18.134;2024-01-30T04:13:39;102547.51;;;-2.72;97.82
76598;BME280;65486;53.144;18.134;2024-01-30T04:16:06;102546.75;;;-2.71;97.87
76598;BME280;65486;53.144;18.134;2024-01-30T04:18:33;102545.58;;;-2.70;97.79
76598;BME280;65486;53.144;18.134;2024-01-30T04:21:00;102545.70;;;-2.68;97.69
76598;BME280;65486;53.144;18.134;2024-01-30T04:23:27;102541.11;;;-2.73;97.83
76598;BME280;65486;53.144;18.134;2024-01-30T04:26:04;102547.27;;;-2.68;97.75
76598;BME280;65486;53.144;18.134;2024-01-30T04:28:31;102546.39;;;-2.68;97.74
76598;BME280;65486;53.144;18.134;2024-01-30T04:30:58;102546.29;;;-2.69;97.64
76598;BME280;65486;53.144;18.134;2024-01-30T04:33:34;102543.45;;;-2.71;97.56
76598;BME280;65486;53.144;18.134;2024-01-30T04:36:01;102539.17;;;-2.71;97.70
76598;BME280;65486;53.144;18.134;2024-01-30T04:38:31;102543.70;;;-2.72;97.77
76598;BME280;65486;53.144;18.134;2024-01-30T04:40:58;102541.76;;;-2.72;97.99
76598;BME280;65486;53.144;18.134;2024-01-30T04:43:25;102542.77;;;-2.74;97.86
76598;BME280;65486;53.144;18.134;2024-01-30T04:45:53;102543.52;;;-2.74;97.89
76598;BME280;65486;53.144;18.134;2024-01-30T04:48:26;102545.16;;;-2.74;97.83
76598;BME280;65486;53.144;18.134;2024-01-30T04:50:53;102550.31;;;-2.73;97.86
76598;BME280;65486;53.144;18.134;2024-01-30T04:53:21;102552.56;;;-2.72;97.85
76598;BME280;65486;53.144;18.134;2024-01-30T04:55:48;102552.31;;;-2.71;97.98
76598;BME280;65486;53.144;18.134;2024-01-30T04:58:15;102552.60;;;-2.70;98.07
76598;BME280;65486;53.144;18.134;2024-01-30T05:00:42;102550.17;;;-2.68;98.09
76598;BME280;65486;53.144;18.134;2024-01-30T05:03:09;102553.13;;;-2.67;98.07
76598;BME280;65486;53.144;18.134;2024-01-30T05:05:36;102555.41;;;-2.66;98.09
76598;BME280;65486;53.144;18.134;2024-01-30T05:08:03;102550.65;;;-2.64;98.38
76598;BME280;65486;53.144;18.134;2024-01-30T05:10:31;102548.14;;;-2.65;98.21
76598;BME280;65486;53.144;18.134;2024-01-30T05:12:58;102549.63;;;-2.63;98.43
76598;BME280;65486;53.144;18.134;2024-01-30T05:15:25;102547.01;;;-2.64;98.27
76598;BME280;65486;53.144;18.134;2024-01-30T05:17:52;102543.20;;;-2.63;98.26
76598;BME280;65486;53.144;18.134;2024-01-30T05:20:19;102538.48;;;-2.63;98.36
76598;BME280;65486;53.144;18.134;2024-01-30T05:22:47;102535.94;;;-2.62;98.40
76598;BME280;65486;53.144;18.134;2024-01-30T05:25:13;102537.89;;;-2.62;98.30
76598;BME280;65486;53.144;18.134;2024-01-30T05:27:41;102538.99;;;-2.62;98.06
76598;BME280;65486;53.144;18.134;2024-01-30T05:30:10;102540.90;;;-2.61;98.42
76598;BME280;65486;53.144;18.134;2024-01-30T05:32:37;102543.40;;;-2.61;98.21
76598;BME280;65486;53.144;18.134;2024-01-30T05:35:04;102540.61;;;-2.59;98.52
76598;BME280;65486;53.144;18.134;2024-01-30T05:37:31;102538.70;;;-2.57;98.56
76598;BME280;65486;53.144;18.134;2024-01-30T05:39:58;102544.56;;;-2.56;98.26
76598;BME280;65486;53.144;18.134;2024-01-30T05:42:26;102544.34;;;-2.55;98.17
76598;BME280;65486;53.144;18.134;2024-01-30T05:44:54;102545.56;;;-2.55;98.43
76598;BME280;65486;53.144;18.134;2024-01-30T05:47:23;102548.98;;;-2.55;98.31
76598;BME280;65486;53.144;18.134;2024-01-30T05:49:50;102551.66;;;-2.54;98.18
76598;BME280;65486;53.144;18.134;2024-01-30T05:52:17;102557.70;;;-2.53;98.07
76598;BME280;65486;53.144;18.134;2024-01-30T05:54:45;102554.99;;;-2.53;98.09
76598;BME280;65486;53.144;18.134;2024-01-30T05:57:12;102554.80;;;-2.52;98.12
76598;BME280;65486;53.144;18.134;2024-01-30T05:59:40;102554.23;;;-2.52;97.94
76598;BME280;65486;53.144;18.134;2024-01-30T06:02:07;102554.45;;;-2.53;98.00
76598;BME280;65486;53.144;18.134;2024-01-30T06:04:35;102553.16;;;-2.52;98.01
76598;BME280;65486;53.144;18.134;2024-01-30T06:07:17;102553.70;;;-2.52;98.06
76598;BME280;65486;53.144;18.134;2024-01-30T06:09:44;102552.38;;;-2.52;98.13
76598;BME280;65486;53.144;18.134;2024-01-30T06:12:12;102549.84;;;-2.51;98.43
76598;BME280;65486;53.144;18.134;2024-01-30T06:14:39;102549.89;;;-2.49;98.54
76598;BME280;65486;53.144;18.134;2024-01-30T06:17:08;102551.52;;;-2.46;98.81
76598;BME280;65486;53.144;18.134;2024-01-30T06:19:37;102558.27;;;-2.42;98.92
76598;BME280;65486;53.144;18.134;2024-01-30T06:22:06;102554.67;;;-2.36;99.08
76598;BME280;65486;53.144;18.134;2024-01-30T06:24:34;102561.06;;;-2.32;98.87
76598;BME280;65486;53.144;18.134;2024-01-30T06:27:01;102560.48;;;-2.29;98.79
76598;BME280;65486;53.144;18.134;2024-01-30T06:29:30;102563.21;;;-2.26;98.75
76598;BME280;65486;53.144;18.134;2024-01-30T06:31:57;102564.00;;;-2.25;98.73
76598;BME280;65486;53.144;18.134;2024-01-30T06:34:24;102562.78;;;-2.25;98.32
76598;BME280;65486;53.144;18.134;2024-01-30T06:36:53;102565.32;;;-2.25;98.34
76598;BME280;65486;53.144;18.134;2024-01-30T06:39:21;102561.10;;;-2.24;98.68
76598;BME280;65486;53.144;18.134;2024-01-30T06:41:49;102560.01;;;-2.24;98.30
76598;BME280;65486;53.144;18.134;2024-01-30T06:44:16;102559.59;;;-2.23;98.40
76598;BME280;65486;53.144;18.134;2024-01-30T06:46:43;102559.92;;;-2.23;98.21
76598;BME280;65486;53.144;18.134;2024-01-30T06:49:10;102559.15;;;-2.22;98.51
76598;BME280;65486;53.144;18.134;2024-01-30T06:51:37;102558.95;;;-2.22;98.19
76598;BME280;65486;53.144;18.134;2024-01-30T06:54:07;102557.66;;;-2.21;98.23
76598;BME280;65486;53.144;18.134;2024-01-30T06:56:38;102557.92;;;-2.20;98.29
76598;BME280;65486;53.144;18.134;2024-01-30T06:59:07;102563.91;;;-2.18;98.47
76598;BME280;65486;53.144;18.134;2024-01-30T07:01:52;102563.64;;;-2.13;98.54
76598;BME280;65486;53.144;18.134;2024-01-30T07:04:21;102562.84;;;-2.09;98.40
76598;BME280;65486;53.144;18.134;2024-01-30T07:06:50;102562.87;;;-2.07;98.28
76598;BME280;65486;53.144;18.134;2024-01-30T07:09:17;102556.77;;;-2.02;98.03
76598;BME280;65486;53.144;18.134;2024-01-30T07:11:59;102560.05;;;-1.97;98.28
76598;BME280;65486;53.144;18.134;2024-01-30T07:14:26;102560.22;;;-1.91;98.36
76598;BME280;65486;53.144;18.134;2024-01-30T07:16:55;102564.19;;;-1.86;98.21
76598;BME280;65486;53.144;18.134;2024-01-30T07:19:45;102565.08;;;-1.80;98.24
76598;BME280;65486;53.144;18.134;2024-01-30T07:22:12;102564.59;;;-1.75;97.91
76598;BME280;65486;53.144;18.134;2024-01-30T07:24:43;102564.14;;;-1.68;97.83
76598;BME280;65486;53.144;18.134;2024-01-30T07:27:15;102560.60;;;-1.61;97.82
76598;BME280;65486;53.144;18.134;2024-01-30T07:29:45;102562.95;;;-1.53;97.89
76598;BME280;65486;53.144;18.134;2024-01-30T07:32:31;102561.88;;;-1.45;97.71
76598;BME280;65486;53.144;18.134;2024-01-30T07:35:13;102559.78;;;-1.35;97.59
76598;BME280;65486;53.144;18.134;2024-01-30T07:37:51;102560.23;;;-1.26;97.50
76598;BME280;65486;53.144;18.134;2024-01-30T07:40:18;102548.34;;;-1.24;97.28
76598;BME280;65486;53.144;18.134;2024-01-30T07:42:45;102563.45;;;-1.07;97.11
76598;BME280;65486;53.144;18.134;2024-01-30T07:45:12;102559.57;;;-0.98;97.25
76598;BME280;65486;53.144;18.134;2024-01-30T07:47:39;102558.91;;;-0.89;96.91
76598;BME280;65486;53.144;18.134;2024-01-30T07:50:06;102558.53;;;-0.80;96.76
76598;BME280;65486;53.144;18.134;2024-01-30T07:52:37;102562.14;;;-0.70;96.76
76598;BME280;65486;53.144;18.134;2024-01-30T07:55:07;102560.04;;;-0.58;96.97
76598;BME280;65486;53.144;18.134;2024-01-30T07:57:35;102565.11;;;-0.46;96.80
76598;BME280;65486;53.144;18.134;2024-01-30T08:00:02;102563.49;;;-0.33;96.52
76598;BME280;65486;53.144;18.134;2024-01-30T08:02:34;102565.44;;;-0.22;96.43
76598;BME280;65486;53.144;18.134;2024-01-30T08:05:01;102564.87;;;-0.12;96.33
76598;BME280;65486;53.144;18.134;2024-01-30T08:07:31;102564.98;;;-0.01;96.18
76598;BME280;65486;53.144;18.134;2024-01-30T08:10:00;102564.82;;;0.11;96.12
76598;BME280;65486;53.144;18.134;2024-01-30T08:12:30;102570.92;;;0.24;95.80
76598;BME280;65486;53.144;18.134;2024-01-30T08:14:59;102569.27;;;0.34;95.61
76598;BME280;65486;53.144;18.134;2024-01-30T08:17:26;102569.39;;;0.42;95.20
76598;BME280;65486;53.144;18.134;2024-01-30T08:19:53;102569.16;;;0.50;95.35
76598;BME280;65486;53.144;18.134;2024-01-30T08:22:20;102566.31;;;0.61;95.34
76598;BME280;65486;53.144;18.134;2024-01-30T08:24:48;102563.33;;;0.79;95.04
76598;BME280;65486;53.144;18.134;2024-01-30T08:27:16;102568.70;;;1.08;94.87
76598;BME280;65486;53.144;18.134;2024-01-30T08:29:44;102560.02;;;1.43;94.17
76598;BME280;65486;53.144;18.134;2024-01-30T08:32:12;102563.19;;;1.76;93.54
76598;BME280;65486;53.144;18.134;2024-01-30T08:34:39;102557.13;;;2.03;92.80
76598;BME280;65486;53.144;18.134;2024-01-30T08:37:06;102559.60;;;2.29;92.37
76598;BME280;65486;53.144;18.134;2024-01-30T08:39:33;102552.83;;;2.62;91.96
76598;BME280;65486;53.144;18.134;2024-01-30T08:42:02;102554.35;;;3.02;91.27
76598;BME280;65486;53.144;18.134;2024-01-30T08:44:29;102552.11;;;3.46;90.59
76598;BME280;65486;53.144;18.134;2024-01-30T08:46:56;102551.00;;;3.89;89.63
76598;BME280;65486;53.144;18.134;2024-01-30T08:49:23;102550.70;;;4.19;88.63
76598;BME280;65486;53.144;18.134;2024-01-30T08:51:50;102545.07;;;4.39;88.21
76598;BME280;65486;53.144;18.134;2024-01-30T08:54:17;102546.96;;;4.58;87.95
76598;BME280;65486;53.144;18.134;2024-01-30T08:56:45;102547.70;;;4.83;87.49
76598;BME280;65486;53.144;18.134;2024-01-30T08:59:12;102545.68;;;5.12;86.86
76598;BME280;65486;53.144;18.134;2024-01-30T09:01:39;102543.89;;;5.42;86.17
76598;BME280;65486;53.144;18.134;2024-01-30T09:04:09;102541.86;;;5.76;85.66
76598;BME280;65486;53.144;18.134;2024-01-30T09:06:46;102536.14;;;6.09;84.76
76598;BME280;65486;53.144;18.134;2024-01-30T09:09:24;102536.34;;;6.42;84.24
76598;BME280;65486;53.144;18.134;2024-01-30T09:11:53;102532.16;;;6.61;83.79
76598;BME280;65486;53.144;18.134;2024-01-30T09:14:20;102527.36;;;6.62;83.77
76598;BME280;65486;53.144;18.134;2024-01-30T09:16:48;102523.38;;;6.56;83.67
76598;BME280;65486;53.144;18.134;2024-01-30T09:19:15;102519.94;;;6.50;83.48
76598;BME280;65486;53.144;18.134;2024-01-30T09:21:47;102521.59;;;6.57;83.26
76598;BME280;65486;53.144;18.134;2024-01-30T09:24:14;102522.63;;;6.70;82.66
76598;BME280;65486;53.144;18.134;2024-01-30T09:26:44;102521.81;;;6.93;82.06
76598;BME280;65486;53.144;18.134;2024-01-30T09:29:13;102519.08;;;7.26;81.52
76598;BME280;65486;53.144;18.134;2024-01-30T09:31:43;102522.50;;;7.70;80.71
76598;BME280;65486;53.144;18.134;2024-01-30T09:34:10;102513.31;;;8.15;79.58
76598;BME280;65486;53.144;18.134;2024-01-30T09:36:42;102505.69;;;8.51;78.77
76598;BME280;65486;53.144;18.134;2024-01-30T09:39:10;102510.12;;;8.92;77.84
76598;BME280;65486;53.144;18.134;2024-01-30T09:44:38;102504.34;;;9.72;74.43
76598;BME280;65486;53.144;18.134;2024-01-30T09:47:09;102502.58;;;10.17;73.70
76598;BME280;65486;53.144;18.134;2024-01-30T09:49:36;102498.52;;;10.72;72.44
76598;BME280;65486;53.144;18.134;2024-01-30T09:52:05;102497.90;;;11.17;67.81
76598;BME280;65486;53.144;18.134;2024-01-30T09:54:34;102496.40;;;11.45;68.41
76598;BME280;65486;53.144;18.134;2024-01-30T09:57:02;102493.65;;;11.69;64.77
76598;BME280;65486;53.144;18.134;2024-01-30T09:59:29;102490.56;;;11.70;64.65
76598;BME280;65486;53.144;18.134;2024-01-30T10:01:57;102491.52;;;11.83;65.96
76598;BME280;65486;53.144;18.134;2024-01-30T10:04:26;102483.43;;;12.11;66.07
76598;BME280;65486;53.144;18.134;2024-01-30T10:06:53;102484.14;;;12.16;65.19
76598;BME280;65486;53.144;18.134;2024-01-30T10:09:20;102480.95;;;11.72;65.78
76598;BME280;65486;53.144;18.134;2024-01-30T10:11:50;102483.36;;;11.26;67.13
76598;BME280;65486;53.144;18.134;2024-01-30T10:14:18;102476.19;;;10.80;66.93
76598;BME280;65486;53.144;18.134;2024-01-30T10:16:46;102468.50;;;10.34;67.16
76598;BME280;65486;53.144;18.134;2024-01-30T10:19:13;102464.67;;;9.94;65.90
76598;BME280;65486;53.144;18.134;2024-01-30T10:21:40;102466.34;;;9.49;66.41
76598;BME280;65486;53.144;18.134;2024-01-30T10:24:07;102464.76;;;9.20;68.22
76598;BME280;65486;53.144;18.134;2024-01-30T10:26:34;102463.52;;;8.99;68.60
76598;BME280;65486;53.144;18.134;2024-01-30T10:29:01;102462.44;;;8.79;68.94
76598;BME280;65486;53.144;18.134;2024-01-30T10:31:29;102461.95;;;8.59;68.53
76598;BME280;65486;53.144;18.134;2024-01-30T10:33:56;102461.08;;;8.38;68.09
76598;BME280;65486;53.144;18.134;2024-01-30T10:36:31;102460.23;;;8.16;68.09
76598;BME280;65486;53.144;18.134;2024-01-30T10:39:06;102465.25;;;7.97;67.83
76598;BME280;65486;53.144;18.134;2024-01-30T10:41:43;102467.06;;;7.68;66.23
76598;BME280;65486;53.144;18.134;2024-01-30T10:44:11;102468.80;;;7.48;68.21
76598;BME280;65486;53.144;18.134;2024-01-30T10:46:41;102464.33;;;7.39;68.31
76598;BME280;65486;53.144;18.134;2024-01-30T10:49:10;102462.44;;;7.29;68.61
76598;BME280;65486;53.144;18.134;2024-01-30T10:51:38;102461.94;;;7.21;68.28
76598;BME280;65486;53.144;18.134;2024-01-30T10:54:06;102460.47;;;7.13;68.69
76598;BME280;65486;53.144;18.134;2024-01-30T10:56:35;102460.36;;;7.09;68.65
76598;BME280;65486;53.144;18.134;2024-01-30T10:59:04;102456.30;;;7.07;68.72
76598;BME280;65486;53.144;18.134;2024-01-30T11:01:32;102456.50;;;7.04;69.04
76598;BME280;65486;53.144;18.134;2024-01-30T11:03:59;102455.21;;;7.00;68.45
76598;BME280;65486;53.144;18.134;2024-01-30T11:06:26;102455.84;;;6.94;68.01
76598;BME280;65486;53.144;18.134;2024-01-30T11:09:03;102453.81;;;6.85;68.08
76598;BME280;65486;53.144;18.134;2024-01-30T11:11:52;102449.95;;;6.78;67.31
76598;BME280;65486;53.144;18.134;2024-01-30T11:14:24;102447.77;;;6.70;67.51
76598;BME280;65486;53.144;18.134;2024-01-30T11:16:53;102450.33;;;6.61;67.76
76598;BME280;65486;53.144;18.134;2024-01-30T11:19:25;102445.73;;;6.56;68.65
76598;BME280;65486;53.144;18.134;2024-01-30T11:21:56;102443.02;;;6.56;68.70
76598;BME280;65486;53.144;18.134;2024-01-30T11:24:27;102438.89;;;6.51;67.67
76598;BME280;65486;53.144;18.134;2024-01-30T11:26:58;102435.90;;;6.47;68.23
76598;BME280;65486;53.144;18.134;2024-01-30T11:29:29;102433.17;;;6.45;68.60
76598;BME280;65486;53.144;18.134;2024-01-30T11:31:58;102429.41;;;6.46;68.81
76598;BME280;65486;53.144;18.134;2024-01-30T11:34:26;102426.16;;;6.47;69.03
76598;BME280;65486;53.144;18.134;2024-01-30T11:36:58;102425.30;;;6.50;69.49
76598;BME280;65486;53.144;18.134;2024-01-30T11:39:26;102423.68;;;6.52;68.89
76598;BME280;65486;53.144;18.134;2024-01-30T11:41:55;102426.30;;;6.53;69.04
76598;BME280;65486;53.144;18.134;2024-01-30T11:44:24;102422.09;;;6.53;69.02
76598;BME280;65486;53.144;18.134;2024-01-30T11:46:55;102418.29;;;6.51;69.19
76598;BME280;65486;53.144;18.134;2024-01-30T11:49:27;102419.84;;;6.48;69.10
76598;BME280;65486;53.144;18.134;2024-01-30T11:51:58;102416.55;;;6.45;69.14
76598;BME280;65486;53.144;18.134;2024-01-30T11:54:25;102412.57;;;6.39;69.13
76598;BME280;65486;53.144;18.134;2024-01-30T11:56:55;102413.52;;;6.35;69.20
76598;BME280;65486;53.144;18.134;2024-01-30T11:59:22;102406.74;;;6.30;68.14
76598;BME280;65486;53.144;18.134;2024-01-30T12:01:49;102407.07;;;6.25;68.19
76598;BME280;65486;53.144;18.134;2024-01-30T12:04:16;102400.80;;;6.22;68.21
76598;BME280;65486;53.144;18.134;2024-01-30T12:06:43;102397.91;;;6.21;68.49
76598;BME280;65486;53.144;18.134;2024-01-30T12:09:11;102397.20;;;6.23;68.73
76598;BME280;65486;53.144;18.134;2024-01-30T12:11:45;102392.14;;;6.24;68.00
76598;BME280;65486;53.144;18.134;2024-01-30T12:14:14;102391.08;;;6.26;68.17
76598;BME280;65486;53.144;18.134;2024-01-30T12:16:41;102387.92;;;6.26;68.23
76598;BME280;65486;53.144;18.134;2024-01-30T12:19:09;102381.30;;;6.27;68.44
76598;BME280;65486;53.144;18.134;2024-01-30T12:21:38;102380.86;;;6.27;68.75
76598;BME280;65486;53.144;18.134;2024-01-30T12:24:05;102378.64;;;6.30;68.12
76598;BME280;65486;53.144;18.134;2024-01-30T12:26:38;102376.52;;;6.31;67.70
76598;BME280;65486;53.144;18.134;2024-01-30T12:29:06;102370.94;;;6.32;68.37
76598;BME280;65486;53.144;18.134;2024-01-30T12:31:43;102367.21;;;6.32;68.68
76598;BME280;65486;53.144;18.134;2024-01-30T12:34:13;102367.45;;;6.32;68.66
76598;BME280;65486;53.144;18.134;2024-01-30T12:36:41;102369.23;;;6.31;68.29
76598;BME280;65486;53.144;18.134;2024-01-30T12:39:11;102366.38;;;6.30;68.40
76598;BME280;65486;53.144;18.134;2024-01-30T12:41:40;102361.23;;;6.28;67.54
76598;BME280;65486;53.144;18.134;2024-01-30T12:44:10;102358.98;;;6.29;67.73
76598;BME280;65486;53.144;18.134;2024-01-30T12:46:41;102353.41;;;6.30;67.94
76598;BME280;65486;53.144;18.134;2024-01-30T12:49:16;102351.66;;;6.31;68.06
76598;BME280;65486;53.144;18.134;2024-01-30T12:51:43;102353.14;;;6.32;67.97
76598;BME280;65486;53.144;18.134;2024-01-30T12:54:12;102347.95;;;6.33;68.32